createdAt,value
2023-06-06T00:00:43.205Z,15.93
2023-06-06T00:05:46.157Z,15.94
2023-06-06T00:10:48.547Z,15.82
2023-06-06T00:15:50.992Z,15.77
2023-06-06T00:20:55.574Z,15.73
2023-06-06T00:25:57.973Z,15.76
2023-06-06T00:31:01.597Z,15.73
2023-06-06T00:36:05.345Z,15.70
2023-06-06T00:41:08.010Z,15.67
2023-06-06T00:46:13.551Z,15.72
2023-06-06T00:51:16.494Z,15.62
2023-06-06T00:56:21.263Z,15.64
2023-06-06T01:01:25.060Z,15.61
2023-06-06T01:06:35.435Z,15.58
2023-06-06T01:12:00.127Z,15.63
2023-06-06T01:17:05.237Z,15.62
2023-06-06T01:22:07.560Z,15.58
2023-06-06T01:27:11.759Z,15.57
2023-06-06T01:32:42.965Z,15.65
2023-06-06T01:37:53.969Z,15.65
2023-06-06T01:42:58.480Z,15.60
2023-06-06T01:48:02.533Z,15.68
2023-06-06T01:53:06.950Z,15.67
2023-06-06T01:58:11.319Z,15.75
2023-06-06T02:03:13.861Z,15.85
2023-06-06T02:08:17.673Z,15.94
2023-06-06T02:13:20.024Z,15.99
2023-06-06T02:18:23.133Z,16.04
2023-06-06T02:23:47.056Z,16.22
2023-06-06T02:28:49.401Z,16.37
2023-06-06T02:33:51.925Z,16.59
2023-06-06T02:38:55.538Z,16.97
2023-06-06T02:43:58.482Z,17.18
2023-06-06T02:49:01.601Z,17.29
2023-06-06T02:54:04.632Z,17.59
2023-06-06T02:59:11.145Z,18.03
2023-06-06T03:04:14.857Z,18.61
2023-06-06T03:09:21.088Z,20.01
2023-06-06T03:14:23.832Z,21.51
2023-06-06T03:19:26.903Z,22.76
2023-06-06T03:24:31.152Z,24.04
2023-06-06T03:29:33.631Z,24.99
2023-06-06T03:34:37.402Z,25.82
2023-06-06T03:39:41.056Z,26.57
2023-06-06T03:44:46.052Z,27.27
2023-06-06T03:49:49.445Z,27.91
2023-06-06T03:54:53.054Z,28.42
2023-06-06T03:59:55.596Z,28.88
2023-06-06T04:05:02.620Z,29.15
2023-06-06T04:10:07.623Z,29.33
2023-06-06T04:15:13.289Z,29.50
2023-06-06T04:20:16.701Z,30.08
2023-06-06T04:25:20.828Z,30.83
2023-06-06T04:30:26.935Z,31.12
2023-06-06T04:35:30.393Z,31.34
2023-06-06T04:40:47.748Z,31.53
2023-06-06T04:45:59.467Z,31.97
2023-06-06T04:51:02.602Z,32.28
2023-06-06T04:56:07.560Z,32.55
2023-06-06T05:01:12.478Z,32.56
2023-06-06T05:06:15.781Z,32.97
2023-06-06T05:11:20.637Z,33.09
2023-06-06T05:16:23.928Z,33.19
2023-06-06T05:21:27.658Z,33.43
2023-06-06T05:26:32.288Z,33.67
2023-06-06T05:31:38.347Z,33.76
2023-06-06T05:36:45.074Z,33.69
2023-06-06T05:41:52.187Z,33.76
2023-06-06T05:46:57.913Z,33.89
2023-06-06T05:52:02.618Z,34.12
2023-06-06T05:57:19.240Z,34.46
2023-06-06T06:02:24.277Z,34.28
2023-06-06T06:07:29.618Z,34.44
2023-06-06T06:12:32.102Z,34.32
2023-06-06T06:17:35.867Z,34.53
2023-06-06T06:22:41.666Z,34.65
2023-06-06T06:27:48.804Z,34.94
2023-06-06T06:32:52.264Z,34.83
2023-06-06T06:37:55.724Z,34.92
2023-06-06T06:42:58.129Z,34.72
2023-06-06T06:48:10.187Z,34.55
2023-06-06T06:53:15.600Z,34.72
2023-06-06T06:58:27.229Z,34.73
2023-06-06T07:03:31.337Z,34.44
2023-06-06T07:08:35.161Z,34.33
2023-06-06T07:13:37.572Z,34.18
2023-06-06T07:18:42.129Z,34.38
2023-06-06T07:23:44.517Z,34.21
2023-06-06T07:28:48.418Z,33.55
2023-06-06T07:33:51.870Z,33.09
2023-06-06T07:38:55.531Z,32.91
2023-06-06T07:44:03.634Z,32.95
2023-06-06T07:49:07.742Z,32.49
2023-06-06T07:54:12.889Z,31.82
2023-06-06T07:59:19.260Z,31.47
2023-06-06T08:04:34.725Z,30.69
2023-06-06T08:09:38.703Z,30.28
2023-06-06T08:14:42.854Z,29.84
2023-06-06T08:19:45.274Z,29.38
2023-06-06T08:25:13.956Z,29.11
2023-06-06T08:30:21.879Z,28.89
2023-06-06T08:35:26.648Z,28.65
2023-06-06T08:40:33.629Z,28.34
2023-06-06T08:45:41.324Z,28.29
2023-06-06T08:50:45.026Z,28.25
2023-06-06T08:55:48.716Z,28.24
2023-06-06T09:00:51.886Z,28.19
2023-06-06T09:05:57.752Z,28.06
2023-06-06T09:11:04.835Z,28.00
2023-06-06T09:16:09.736Z,27.94
2023-06-06T09:21:14.498Z,28.07
2023-06-06T09:26:21.978Z,28.03
2023-06-06T09:31:34.300Z,27.79
2023-06-06T09:36:39.648Z,27.74
2023-06-06T09:41:43.863Z,27.51
2023-06-06T09:46:46.550Z,27.55
2023-06-06T09:51:49.861Z,27.49
2023-06-06T09:56:58.506Z,27.42
2023-06-06T10:02:09.476Z,27.32
2023-06-06T10:07:14.455Z,27.27
2023-06-06T10:12:18.372Z,26.99
2023-06-06T10:17:21.473Z,27.21
2023-06-06T10:22:25.760Z,27.25
2023-06-06T10:27:40.746Z,27.16
2023-06-06T10:33:04.176Z,27.24
2023-06-06T10:38:11.764Z,27.16
2023-06-06T10:43:33.281Z,26.79
2023-06-06T10:48:39.590Z,26.83
2023-06-06T10:53:43.264Z,26.76
2023-06-06T10:58:48.071Z,27.00
2023-06-06T11:03:54.001Z,26.67
2023-06-06T11:09:02.592Z,26.61
2023-06-06T11:14:09.586Z,26.77
2023-06-06T11:19:17.632Z,26.68
2023-06-06T11:24:21.285Z,26.69
2023-06-06T11:29:25.024Z,26.65
2023-06-06T11:34:29.704Z,26.55
2023-06-06T11:39:32.682Z,26.60
2023-06-06T11:45:28.397Z,26.42
2023-06-06T11:50:31.711Z,25.66
2023-06-06T12:01:17.739Z,25.84
2023-06-06T12:06:25.806Z,25.85
2023-06-06T12:11:31.917Z,25.86
2023-06-06T12:16:35.930Z,26.01
2023-06-06T12:21:49.681Z,25.87
2023-06-06T12:27:04.808Z,25.82
2023-06-06T12:32:16.819Z,25.69
2023-06-06T12:37:20.145Z,25.74
2023-06-06T12:42:26.731Z,25.76
2023-06-06T12:47:30.115Z,25.71
2023-06-06T12:52:32.838Z,25.76
2023-06-06T12:57:35.670Z,25.67
2023-06-06T13:02:43.853Z,25.63
2023-06-06T13:07:56.782Z,25.53
2023-06-06T13:12:59.363Z,25.43
2023-06-06T13:18:02.728Z,25.42
2023-06-06T13:23:07.130Z,25.42
2023-06-06T13:28:10.448Z,25.26
2023-06-06T13:33:13.662Z,25.30
2023-06-06T13:38:25.293Z,25.19
2023-06-06T13:43:28.228Z,25.16
2023-06-06T13:48:32.471Z,25.14
2023-06-06T13:53:35.531Z,25.04
2023-06-06T13:58:50.577Z,25.00
2023-06-06T14:03:55.274Z,24.94
2023-06-06T14:08:58.061Z,24.87
2023-06-06T14:14:02.262Z,24.78
2023-06-06T14:19:06.081Z,24.77
2023-06-06T14:24:10.271Z,24.53
2023-06-06T14:29:13.193Z,24.49
2023-06-06T14:34:16.341Z,24.46
2023-06-06T14:39:19.236Z,24.37
2023-06-06T14:44:24.527Z,24.13
2023-06-06T14:49:27.691Z,24.23
2023-06-06T14:54:31.847Z,24.19
2023-06-06T14:59:34.624Z,24.23
2023-06-06T15:04:37.630Z,24.15
2023-06-06T15:09:40.147Z,24.11
2023-06-06T15:14:43.578Z,24.06
2023-06-06T15:19:46.348Z,24.07
2023-06-06T15:24:49.842Z,24.05
2023-06-06T15:29:56.753Z,24.02
2023-06-06T15:35:00.163Z,24.02
2023-06-06T15:40:04.171Z,24.00
2023-06-06T15:45:07.596Z,23.90
2023-06-06T15:50:12.347Z,23.67
2023-06-06T15:55:17.944Z,23.63
2023-06-06T16:00:23.945Z,23.47
2023-06-06T16:05:27.673Z,23.39
2023-06-06T16:10:31.012Z,23.23
2023-06-06T16:15:34.080Z,23.04
2023-06-06T16:20:36.991Z,22.97
2023-06-06T16:25:39.444Z,22.87
2023-06-06T16:30:41.873Z,22.73
2023-06-06T16:35:44.420Z,22.60
2023-06-06T16:40:47.006Z,22.46
2023-06-06T16:45:49.421Z,22.31
2023-06-06T16:50:52.273Z,22.19
2023-06-06T16:55:56.075Z,22.06
2023-06-06T17:00:59.012Z,21.97
2023-06-06T17:06:01.931Z,21.90
2023-06-06T17:11:04.383Z,21.73
2023-06-06T17:16:08.300Z,21.67
2023-06-06T17:21:11.417Z,21.41
2023-06-06T17:26:14.352Z,21.32
2023-06-06T17:31:17.105Z,21.21
2023-06-06T17:36:19.790Z,21.11
2023-06-06T17:41:22.824Z,20.96
2023-06-06T17:46:26.475Z,20.88
2023-06-06T17:51:29.038Z,20.74
2023-06-06T17:56:33.994Z,20.75
2023-06-06T18:01:37.117Z,20.56
2023-06-06T18:06:40.069Z,20.54
2023-06-06T18:11:44.447Z,20.43
2023-06-06T18:16:47.256Z,20.40
2023-06-06T18:21:50.090Z,20.30
2023-06-06T18:26:52.554Z,20.10
2023-06-06T18:31:56.722Z,20.21
2023-06-06T18:36:59.227Z,20.14
2023-06-06T18:42:05.070Z,20.02
2023-06-06T18:47:07.854Z,20.05
2023-06-06T18:52:10.454Z,20.02
2023-06-06T18:57:15.691Z,19.97
2023-06-06T19:02:18.552Z,19.95
2023-06-06T19:07:21.484Z,19.90
2023-06-06T19:12:34.619Z,19.79
2023-06-06T19:17:42.512Z,19.79
2023-06-06T19:22:46.242Z,19.62
2023-06-06T19:27:48.902Z,19.61
2023-06-06T19:32:51.506Z,19.65
2023-06-06T19:37:54.434Z,19.53
2023-06-06T19:42:58.091Z,19.39
2023-06-06T19:48:00.584Z,19.41
2023-06-06T19:53:04.169Z,19.34
2023-06-06T19:58:06.967Z,19.27
2023-06-06T20:03:09.457Z,19.03
2023-06-06T20:08:12.542Z,19.07
2023-06-06T20:13:15.405Z,18.92
2023-06-06T20:18:17.966Z,18.89
2023-06-06T20:23:20.970Z,18.81
2023-06-06T20:28:23.894Z,18.71
2023-06-06T20:33:26.665Z,18.68
2023-06-06T20:38:29.769Z,18.65
2023-06-06T20:43:35.932Z,18.56
2023-06-06T20:48:38.983Z,18.54
2023-06-06T20:53:41.867Z,18.54
2023-06-06T20:58:44.851Z,18.46
2023-06-06T21:03:47.762Z,18.36
2023-06-06T21:08:50.673Z,18.36
2023-06-06T21:13:53.648Z,18.29
2023-06-06T21:18:56.061Z,18.18
2023-06-06T21:23:58.586Z,18.11
2023-06-06T21:29:02.629Z,18.08
2023-06-06T21:34:06.085Z,18.10
2023-06-06T21:39:09.387Z,17.98
2023-06-06T21:44:12.194Z,17.92
2023-06-06T21:49:14.912Z,17.83
2023-06-06T21:54:17.321Z,17.75
2023-06-06T21:59:21.324Z,17.72
2023-06-06T22:04:23.860Z,17.69
2023-06-06T22:09:26.609Z,17.59
2023-06-06T22:14:29.580Z,17.58
2023-06-06T22:19:31.956Z,17.51
2023-06-06T22:24:34.801Z,17.47
2023-06-06T22:29:37.709Z,17.46
2023-06-06T22:34:40.068Z,17.53
2023-06-06T22:39:44.448Z,17.46
2023-06-06T22:44:47.525Z,17.43
2023-06-06T22:49:51.600Z,17.42
2023-06-06T22:54:54.019Z,17.36
2023-06-06T22:59:57.021Z,17.34
2023-06-06T23:04:59.458Z,17.01
2023-06-06T23:10:02.786Z,17.02
2023-06-06T23:15:07.132Z,17.06
2023-06-06T23:20:14.382Z,17.07
2023-06-06T23:25:17.156Z,17.05
2023-06-06T23:30:20.212Z,17.12
2023-06-06T23:35:23.381Z,17.15
2023-06-06T23:40:25.848Z,17.01
2023-06-06T23:45:29.310Z,17.12
2023-06-06T23:50:33.256Z,16.94
2023-06-06T23:55:37.480Z,16.93
